sensor_id;sensor_type;location;lat;lon;timestamp;pressure;altitude;pressure_sealevel;temperature;humidity
12789;BME280;6458;42.710;23.192;2023-11-21T00:00:02;93656.16;;;4.22;100.00
12789;BME280;6458;42.710;23.192;2023-11-21T00:02:35;93658.09;;;4.13;100.00
12789;BME280;6458;42.710;23.192;2023-11-21T00:05:06;93657.47;;;4.04;100.00
12789;BME280;6458;42.710;23.192;2023-11-21T00:07:33;93660.84;;;4.06;100.00
12789;BME280;6458;42.710;23.192;2023-11-21T00:10:00;93652.34;;;4.04;100.00
12789;BME280;6458;42.710;23.192;2023-11-21T00:12:28;93653.75;;;4.15;100.00
12789;BME280;6458;42.710;23.192;2023-11-21T00:14:55;93645.41;;;4.07;100.00
12789;BME280;6458;42.710;23.192;2023-11-21T00:17:23;93650.41;;;4.12;100.00
12789;BME280;6458;42.710;23.192;2023-11-21T00:19:50;93651.47;;;4.05;100.00
12789;BME280;6458;42.710;23.192;2023-11-21T00:22:19;93656.53;;;4.08;100.00
12789;BME280;6458;42.710;23.192;2023-11-21T00:24:46;93645.19;;;4.16;100.00
12789;BME280;6458;42.710;23.192;2023-11-21T00:27:13;93648.59;;;4.15;100.00
12789;BME280;6458;42.710;23.192;2023-11-21T00:29:41;93649.78;;;4.04;100.00
12789;BME280;6458;42.710;23.192;2023-11-21T00:32:08;93651.31;;;4.11;100.00
12789;BME280;6458;42.710;23.192;2023-11-21T00:34:35;93645.78;;;4.26;100.00
12789;BME280;6458;42.710;23.192;2023-11-21T00:37:02;93641.56;;;4.24;100.00
12789;BME280;6458;42.710;23.192;2023-11-21T00:39:31;93651.22;;;4.14;100.00
12789;BME280;6458;42.710;23.192;2023-11-21T00:41:58;93648.22;;;3.98;100.00
12789;BME280;6458;42.710;23.192;2023-11-21T00:44:25;93652.53;;;3.96;100.00
12789;BME280;6458;42.710;23.192;2023-11-21T00:46:52;93646.16;;;3.77;100.00
12789;BME280;6458;42.710;23.192;2023-11-21T00:49:20;93646.94;;;3.80;100.00
12789;BME280;6458;42.710;23.192;2023-11-21T00:51:47;93645.09;;;3.85;100.00
12789;BME280;6458;42.710;23.192;2023-11-21T00:54:14;93642.56;;;3.84;100.00
12789;BME280;6458;42.710;23.192;2023-11-21T00:56:43;93637.41;;;3.85;100.00
12789;BME280;6458;42.710;23.192;2023-11-21T00:59:12;93632.91;;;3.93;100.00
12789;BME280;6458;42.710;23.192;2023-11-21T01:01:39;93637.03;;;3.65;100.00
12789;BME280;6458;42.710;23.192;2023-11-21T01:04:07;93631.75;;;3.71;100.00
12789;BME280;6458;42.710;23.192;2023-11-21T01:06:33;93627.25;;;3.81;100.00
12789;BME280;6458;42.710;23.192;2023-11-21T01:09:00;93629.72;;;3.85;100.00
12789;BME280;6458;42.710;23.192;2023-11-21T01:11:33;93624.97;;;4.03;100.00
12789;BME280;6458;42.710;23.192;2023-11-21T01:14:03;93619.47;;;4.18;100.00
12789;BME280;6458;42.710;23.192;2023-11-21T01:16:30;93623.53;;;4.25;100.00
12789;BME280;6458;42.710;23.192;2023-11-21T01:18:58;93626.03;;;4.28;100.00
12789;BME280;6458;42.710;23.192;2023-11-21T01:21:25;93626.00;;;4.30;100.00
12789;BME280;6458;42.710;23.192;2023-11-21T01:23:53;93632.72;;;4.35;100.00
12789;BME280;6458;42.710;23.192;2023-11-21T01:26:20;93623.13;;;4.40;100.00
12789;BME280;6458;42.710;23.192;2023-11-21T01:28:47;93621.06;;;4.55;100.00
12789;BME280;6458;42.710;23.192;2023-11-21T01:31:16;93616.66;;;4.58;100.00
12789;BME280;6458;42.710;23.192;2023-11-21T01:33:43;93628.69;;;4.56;100.00
12789;BME280;6458;42.710;23.192;2023-11-21T01:36:10;93632.31;;;4.49;100.00
12789;BME280;6458;42.710;23.192;2023-11-21T01:38:37;93641.72;;;4.50;100.00
12789;BME280;6458;42.710;23.192;2023-11-21T01:41:05;93638.47;;;4.44;100.00
12789;BME280;6458;42.710;23.192;2023-11-21T01:43:32;93633.31;;;4.44;100.00
12789;BME280;6458;42.710;23.192;2023-11-21T01:45:59;93618.00;;;4.40;100.00
12789;BME280;6458;42.710;23.192;2023-11-21T01:48:28;93613.91;;;4.33;100.00
12789;BME280;6458;42.710;23.192;2023-11-21T01:50:57;93616.72;;;4.24;100.00
12789;BME280;6458;42.710;23.192;2023-11-21T01:53:25;93620.09;;;4.26;100.00
12789;BME280;6458;42.710;23.192;2023-11-21T01:55:55;93623.47;;;4.28;100.00
12789;BME280;6458;42.710;23.192;2023-11-21T01:58:23;93618.53;;;4.21;100.00
12789;BME280;6458;42.710;23.192;2023-11-21T02:00:50;93621.06;;;4.22;100.00
12789;BME280;6458;42.710;23.192;2023-11-21T02:03:20;93629.78;;;4.16;100.00
12789;BME280;6458;42.710;23.192;2023-11-21T02:05:49;93627.28;;;4.13;100.00
12789;BME280;6458;42.710;23.192;2023-11-21T02:08:16;93620.44;;;4.14;100.00
12789;BME280;6458;42.710;23.192;2023-11-21T02:10:44;93624.72;;;4.13;100.00
12789;BME280;6458;42.710;23.192;2023-11-21T02:13:13;93623.00;;;4.14;100.00
12789;BME280;6458;42.710;23.192;2023-11-21T02:15:41;93631.00;;;4.02;100.00
12789;BME280;6458;42.710;23.192;2023-11-21T02:18:09;93623.47;;;3.94;100.00
12789;BME280;6458;42.710;23.192;2023-11-21T02:20:36;93631.16;;;3.95;100.00
12789;BME280;6458;42.710;23.192;2023-11-21T02:23:08;93624.28;;;3.96;100.00
12789;BME280;6458;42.710;23.192;2023-11-21T02:25:35;93612.34;;;3.95;100.00
12789;BME280;6458;42.710;23.192;2023-11-21T02:28:03;93616.19;;;3.79;100.00
12789;BME280;6458;42.710;23.192;2023-11-21T02:30:32;93608.94;;;3.60;100.00
12789;BME280;6458;42.710;23.192;2023-11-21T02:33:00;93617.19;;;3.71;100.00
12789;BME280;6458;42.710;23.192;2023-11-21T02:35:27;93615.56;;;3.69;100.00
12789;BME280;6458;42.710;23.192;2023-11-21T02:37:54;93614.75;;;3.67;100.00
12789;BME280;6458;42.710;23.192;2023-11-21T02:40:23;93617.94;;;3.77;100.00
12789;BME280;6458;42.710;23.192;2023-11-21T02:42:51;93614.38;;;3.82;100.00
12789;BME280;6458;42.710;23.192;2023-11-21T02:45:19;93620.28;;;3.86;100.00
12789;BME280;6458;42.710;23.192;2023-11-21T02:47:47;93616.00;;;3.86;100.00
12789;BME280;6458;42.710;23.192;2023-11-21T02:50:15;93615.41;;;3.75;100.00
12789;BME280;6458;42.710;23.192;2023-11-21T02:52:42;93618.03;;;3.74;100.00
12789;BME280;6458;42.710;23.192;2023-11-21T02:55:09;93611.44;;;3.62;100.00
12789;BME280;6458;42.710;23.192;2023-11-21T02:57:38;93599.66;;;3.55;100.00
12789;BME280;6458;42.710;23.192;2023-11-21T03:00:06;93596.25;;;3.54;100.00
12789;BME280;6458;42.710;23.192;2023-11-21T03:02:33;93604.78;;;3.55;100.00
12789;BME280;6458;42.710;23.192;2023-11-21T03:05:05;93590.25;;;3.55;100.00
12789;BME280;6458;42.710;23.192;2023-11-21T03:07:33;93606.53;;;3.53;100.00
12789;BME280;6458;42.710;23.192;2023-11-21T03:10:00;93603.25;;;3.47;100.00
12789;BME280;6458;42.710;23.192;2023-11-21T03:12:27;93594.75;;;3.45;100.00
12789;BME280;6458;42.710;23.192;2023-11-21T03:14:55;93615.19;;;3.48;100.00
12789;BME280;6458;42.710;23.192;2023-11-21T03:17:22;93610.84;;;3.52;100.00
12789;BME280;6458;42.710;23.192;2023-11-21T03:19:50;93612.03;;;3.37;100.00
12789;BME280;6458;42.710;23.192;2023-11-21T03:22:17;93618.94;;;3.34;100.00
12789;BME280;6458;42.710;23.192;2023-11-21T03:24:44;93621.38;;;3.40;100.00
12789;BME280;6458;42.710;23.192;2023-11-21T03:27:11;93623.94;;;3.40;100.00
12789;BME280;6458;42.710;23.192;2023-11-21T03:29:38;93629.06;;;3.40;100.00
12789;BME280;6458;42.710;23.192;2023-11-21T03:32:07;93621.28;;;3.44;100.00
12789;BME280;6458;42.710;23.192;2023-11-21T03:34:35;93614.59;;;3.37;100.00
12789;BME280;6458;42.710;23.192;2023-11-21T03:37:02;93619.56;;;3.43;100.00
12789;BME280;6458;42.710;23.192;2023-11-21T03:39:29;93609.09;;;3.53;100.00
12789;BME280;6458;42.710;23.192;2023-11-21T03:41:56;93591.09;;;3.56;100.00
12789;BME280;6458;42.710;23.192;2023-11-21T03:44:23;93595.28;;;3.60;100.00
12789;BME280;6458;42.710;23.192;2023-11-21T03:46:50;93589.25;;;3.61;100.00
12789;BME280;6458;42.710;23.192;2023-11-21T03:49:18;93587.50;;;3.63;100.00
12789;BME280;6458;42.710;23.192;2023-11-21T03:51:45;93589.13;;;3.65;100.00
12789;BME280;6458;42.710;23.192;2023-11-21T03:54:12;93585.50;;;3.76;100.00
12789;BME280;6458;42.710;23.192;2023-11-21T03:56:40;93588.44;;;3.93;100.00
12789;BME280;6458;42.710;23.192;2023-11-21T03:59:07;93588.44;;;3.94;100.00
12789;BME280;6458;42.710;23.192;2023-11-21T04:01:34;93576.31;;;4.00;100.00
12789;BME280;6458;42.710;23.192;2023-11-21T04:04:01;93584.38;;;3.86;100.00
12789;BME280;6458;42.710;23.192;2023-11-21T04:13:06;93586.63;;;3.64;100.00
12789;BME280;6458;42.710;23.192;2023-11-21T04:15:33;93584.13;;;3.61;100.00
12789;BME280;6458;42.710;23.192;2023-11-21T04:18:00;93584.28;;;3.55;100.00
12789;BME280;6458;42.710;23.192;2023-11-21T04:20:27;93595.34;;;3.57;100.00
12789;BME280;6458;42.710;23.192;2023-11-21T04:22:54;93596.13;;;3.59;100.00
12789;BME280;6458;42.710;23.192;2023-11-21T04:25:21;93589.13;;;3.65;100.00
12789;BME280;6458;42.710;23.192;2023-11-21T04:27:48;93600.47;;;3.57;100.00
12789;BME280;6458;42.710;23.192;2023-11-21T04:30:17;93602.09;;;3.59;100.00
12789;BME280;6458;42.710;23.192;2023-11-21T04:32:44;93604.34;;;3.37;100.00
12789;BME280;6458;42.710;23.192;2023-11-21T04:35:11;93599.00;;;3.46;100.00
12789;BME280;6458;42.710;23.192;2023-11-21T04:37:38;93600.63;;;3.51;100.00
12789;BME280;6458;42.710;23.192;2023-11-21T04:40:06;93598.97;;;3.48;100.00
12789;BME280;6458;42.710;23.192;2023-11-21T04:42:34;93593.09;;;3.44;100.00
12789;BME280;6458;42.710;23.192;2023-11-21T04:45:02;93599.06;;;3.43;100.00
12789;BME280;6458;42.710;23.192;2023-11-21T04:47:34;93602.44;;;3.47;100.00
12789;BME280;6458;42.710;23.192;2023-11-21T04:50:06;93608.69;;;3.35;100.00
12789;BME280;6458;42.710;23.192;2023-11-21T04:52:33;93607.16;;;3.27;100.00
12789;BME280;6458;42.710;23.192;2023-11-21T04:55:00;93605.44;;;3.27;100.00
12789;BME280;6458;42.710;23.192;2023-11-21T04:57:28;93601.78;;;3.37;100.00
12789;BME280;6458;42.710;23.192;2023-11-21T04:59:55;93605.16;;;3.39;100.00
12789;BME280;6458;42.710;23.192;2023-11-21T05:02:22;93608.59;;;3.38;100.00
12789;BME280;6458;42.710;23.192;2023-11-21T05:04:50;93603.69;;;3.29;100.00
12789;BME280;6458;42.710;23.192;2023-11-21T05:07:18;93598.56;;;3.29;100.00
12789;BME280;6458;42.710;23.192;2023-11-21T05:09:46;93599.13;;;3.40;100.00
12789;BME280;6458;42.710;23.192;2023-11-21T05:12:13;93598.22;;;3.44;100.00
12789;BME280;6458;42.710;23.192;2023-11-21T05:14:40;93596.28;;;3.53;100.00
12789;BME280;6458;42.710;23.192;2023-11-21T05:17:08;93589.47;;;3.52;100.00
12789;BME280;6458;42.710;23.192;2023-11-21T05:19:35;93590.16;;;3.60;100.00
12789;BME280;6458;42.710;23.192;2023-11-21T05:22:04;93594.34;;;3.62;100.00
12789;BME280;6458;42.710;23.192;2023-11-21T05:24:31;93602.69;;;3.72;100.00
12789;BME280;6458;42.710;23.192;2023-11-21T05:26:58;93608.50;;;3.79;100.00
12789;BME280;6458;42.710;23.192;2023-11-21T05:29:25;93607.63;;;3.78;100.00
12789;BME280;6458;42.710;23.192;2023-11-21T05:31:52;93607.47;;;3.86;100.00
12789;BME280;6458;42.710;23.192;2023-11-21T05:34:19;93603.13;;;3.88;100.00
12789;BME280;6458;42.710;23.192;2023-11-21T05:36:49;93612.31;;;3.97;100.00
12789;BME280;6458;42.710;23.192;2023-11-21T05:39:18;93606.22;;;4.01;100.00
12789;BME280;6458;42.710;23.192;2023-11-21T05:41:46;93596.66;;;4.06;100.00
12789;BME280;6458;42.710;23.192;2023-11-21T05:44:13;93601.66;;;4.12;100.00
12789;BME280;6458;42.710;23.192;2023-11-21T05:46:40;93595.50;;;4.17;100.00
12789;BME280;6458;42.710;23.192;2023-11-21T05:49:08;93599.56;;;4.26;100.00
12789;BME280;6458;42.710;23.192;2023-11-21T05:51:36;93591.88;;;4.26;100.00
12789;BME280;6458;42.710;23.192;2023-11-21T05:54:03;93591.88;;;4.26;100.00
12789;BME280;6458;42.710;23.192;2023-11-21T05:56:32;93593.41;;;4.32;100.00
12789;BME280;6458;42.710;23.192;2023-11-21T05:58:59;93593.94;;;4.45;100.00
12789;BME280;6458;42.710;23.192;2023-11-21T06:01:27;93597.94;;;4.55;100.00
12789;BME280;6458;42.710;23.192;2023-11-21T06:03:54;93596.13;;;4.58;100.00
12789;BME280;6458;42.710;23.192;2023-11-21T06:06:21;93598.50;;;4.64;100.00
12789;BME280;6458;42.710;23.192;2023-11-21T06:08:50;93602.72;;;4.67;100.00
12789;BME280;6458;42.710;23.192;2023-11-21T06:11:17;93603.34;;;4.75;100.00
12789;BME280;6458;42.710;23.192;2023-11-21T06:13:45;93603.13;;;4.83;100.00
12789;BME280;6458;42.710;23.192;2023-11-21T06:16:13;93612.66;;;4.79;100.00
12789;BME280;6458;42.710;23.192;2023-11-21T06:18:42;93616.25;;;4.74;100.00
12789;BME280;6458;42.710;23.192;2023-11-21T06:21:10;93618.66;;;4.78;100.00
12789;BME280;6458;42.710;23.192;2023-11-21T06:23:37;93614.09;;;4.88;100.00
12789;BME280;6458;42.710;23.192;2023-11-21T06:26:05;93616.38;;;4.99;100.00
12789;BME280;6458;42.710;23.192;2023-11-21T06:28:32;93626.25;;;5.13;100.00
12789;BME280;6458;42.710;23.192;2023-11-21T06:31:01;93620.31;;;5.39;100.00
12789;BME280;6458;42.710;23.192;2023-11-21T06:33:30;93621.44;;;5.58;100.00
12789;BME280;6458;42.710;23.192;2023-11-21T06:35:57;93628.84;;;5.67;100.00
12789;BME280;6458;42.710;23.192;2023-11-21T06:38:25;93624.03;;;5.85;100.00
12789;BME280;6458;42.710;23.192;2023-11-21T06:40:55;93628.44;;;6.08;100.00
12789;BME280;6458;42.710;23.192;2023-11-21T06:43:22;93631.00;;;6.34;100.00
12789;BME280;6458;42.710;23.192;2023-11-21T06:46:05;93630.94;;;6.61;100.00
12789;BME280;6458;42.710;23.192;2023-11-21T06:48:32;93633.38;;;6.89;100.00
12789;BME280;6458;42.710;23.192;2023-11-21T06:51:00;93633.50;;;7.09;100.00
12789;BME280;6458;42.710;23.192;2023-11-21T06:53:27;93637.72;;;7.34;100.00
12789;BME280;6458;42.710;23.192;2023-11-21T06:55:54;93635.66;;;7.20;100.00
12789;BME280;6458;42.710;23.192;2023-11-21T06:58:21;93644.50;;;7.36;100.00
12789;BME280;6458;42.710;23.192;2023-11-21T07:00:48;93642.19;;;7.52;100.00
12789;BME280;6458;42.710;23.192;2023-11-21T07:03:18;93637.69;;;7.57;100.00
12789;BME280;6458;42.710;23.192;2023-11-21T07:05:45;93631.72;;;7.57;100.00
12789;BME280;6458;42.710;23.192;2023-11-21T07:08:12;93639.44;;;6.88;100.00
12789;BME280;6458;42.710;23.192;2023-11-21T07:10:40;93623.25;;;6.84;100.00
12789;BME280;6458;42.710;23.192;2023-11-21T07:13:07;93619.06;;;6.80;100.00
12789;BME280;6458;42.710;23.192;2023-11-21T07:15:37;93624.72;;;6.90;100.00
12789;BME280;6458;42.710;23.192;2023-11-21T07:18:05;93628.09;;;6.92;100.00
12789;BME280;6458;42.710;23.192;2023-11-21T07:20:34;93622.44;;;7.06;100.00
12789;BME280;6458;42.710;23.192;2023-11-21T07:23:02;93622.94;;;7.15;100.00
12789;BME280;6458;42.710;23.192;2023-11-21T07:25:29;93629.97;;;7.34;100.00
12789;BME280;6458;42.710;23.192;2023-11-21T07:27:57;93624.59;;;7.40;100.00
12789;BME280;6458;42.710;23.192;2023-11-21T07:30:24;93635.09;;;7.35;100.00
12789;BME280;6458;42.710;23.192;2023-11-21T07:32:51;93632.63;;;7.09;100.00
12789;BME280;6458;42.710;23.192;2023-11-21T07:35:18;93630.13;;;7.07;100.00
12789;BME280;6458;42.710;23.192;2023-11-21T07:37:47;93640.56;;;7.04;100.00
12789;BME280;6458;42.710;23.192;2023-11-21T07:40:14;93630.13;;;7.07;100.00
12789;BME280;6458;42.710;23.192;2023-11-21T07:42:42;93634.38;;;7.32;100.00
12789;BME280;6458;42.710;23.192;2023-11-21T07:45:09;93632.19;;;7.45;100.00
12789;BME280;6458;42.710;23.192;2023-11-21T07:47:37;93624.53;;;7.41;100.00
12789;BME280;6458;42.710;23.192;2023-11-21T07:50:05;93628.25;;;7.56;100.00
12789;BME280;6458;42.710;23.192;2023-11-21T07:52:32;93625.44;;;7.62;100.00
12789;BME280;6458;42.710;23.192;2023-11-21T07:55:01;93617.81;;;7.81;100.00
12789;BME280;6458;42.710;23.192;2023-11-21T07:57:29;93623.22;;;7.75;100.00
12789;BME280;6458;42.710;23.192;2023-11-21T07:59:56;93618.78;;;7.79;100.00
12789;BME280;6458;42.710;23.192;2023-11-21T08:02:23;93617.69;;;7.84;100.00
12789;BME280;6458;42.710;23.192;2023-11-21T08:04:52;93614.59;;;7.54;100.00
12789;BME280;6458;42.710;23.192;2023-11-21T08:07:25;93612.81;;;7.33;100.00
12789;BME280;6458;42.710;23.192;2023-11-21T08:09:55;93622.50;;;7.50;100.00
12789;BME280;6458;42.710;23.192;2023-11-21T08:12:25;93614.59;;;7.54;100.00
12789;BME280;6458;42.710;23.192;2023-11-21T08:14:53;93615.66;;;7.93;100.00
12789;BME280;6458;42.710;23.192;2023-11-21T08:17:20;93607.63;;;8.21;100.00
12789;BME280;6458;42.710;23.192;2023-11-21T08:19:47;93606.31;;;8.10;100.00
12789;BME280;6458;42.710;23.192;2023-11-21T08:22:15;93609.09;;;8.26;100.00
12789;BME280;6458;42.710;23.192;2023-11-21T08:24:43;93604.09;;;8.64;100.00
12789;BME280;6458;42.710;23.192;2023-11-21T08:27:12;93609.00;;;8.50;98.89
12789;BME280;6458;42.710;23.192;2023-11-21T08:29:42;93605.56;;;8.49;100.00
12789;BME280;6458;42.710;23.192;2023-11-21T08:32:09;93605.41;;;8.32;99.36
12789;BME280;6458;42.710;23.192;2023-11-21T08:34:36;93604.28;;;8.39;98.04
12789;BME280;6458;42.710;23.192;2023-11-21T08:37:05;93603.03;;;8.68;99.67
12789;BME280;6458;42.710;23.192;2023-11-21T08:39:32;93611.03;;;9.01;97.51
12789;BME280;6458;42.710;23.192;2023-11-21T08:41:59;93608.59;;;8.98;93.36
12789;BME280;6458;42.710;23.192;2023-11-21T08:44:26;93606.63;;;8.85;91.68
12789;BME280;6458;42.710;23.192;2023-11-21T08:46:54;93596.91;;;8.50;96.16
12789;BME280;6458;42.710;23.192;2023-11-21T08:49:21;93593.97;;;8.39;99.99
12789;BME280;6458;42.710;23.192;2023-11-21T08:51:48;93598.38;;;8.35;100.00
12789;BME280;6458;42.710;23.192;2023-11-21T08:54:15;93583.34;;;8.45;100.00
12789;BME280;6458;42.710;23.192;2023-11-21T08:56:43;93587.88;;;8.79;99.93
12789;BME280;6458;42.710;23.192;2023-11-21T08:59:10;93579.94;;;8.84;96.62
12789;BME280;6458;42.710;23.192;2023-11-21T09:01:40;93570.16;;;8.91;94.05
12789;BME280;6458;42.710;23.192;2023-11-21T09:04:08;93566.50;;;8.95;92.15
12789;BME280;6458;42.710;23.192;2023-11-21T09:06:35;93554.84;;;8.86;92.24
12789;BME280;6458;42.710;23.192;2023-11-21T09:09:02;93553.50;;;8.96;93.21
12789;BME280;6458;42.710;23.192;2023-11-21T09:11:31;93564.56;;;9.00;88.82
12789;BME280;6458;42.710;23.192;2023-11-21T09:13:59;93547.28;;;9.19;86.66
12789;BME280;6458;42.710;23.192;2023-11-21T09:16:26;93533.00;;;9.29;87.53
12789;BME280;6458;42.710;23.192;2023-11-21T09:18:53;93526.72;;;8.97;89.04
12789;BME280;6458;42.710;23.192;2023-11-21T09:21:21;93509.16;;;9.04;87.81
12789;BME280;6458;42.710;23.192;2023-11-21T09:23:49;93521.00;;;8.91;87.95
12789;BME280;6458;42.710;23.192;2023-11-21T09:26:16;93513.94;;;8.94;89.18
12789;BME280;6458;42.710;23.192;2023-11-21T09:28:43;93513.31;;;9.44;89.16
12789;BME280;6458;42.710;23.192;2023-11-21T09:31:13;93507.16;;;9.64;86.07
12789;BME280;6458;42.710;23.192;2023-11-21T09:33:42;93505.00;;;10.09;84.49
12789;BME280;6458;42.710;23.192;2023-11-21T09:36:11;93493.47;;;10.32;82.52
12789;BME280;6458;42.710;23.192;2023-11-21T09:38:40;93484.94;;;10.12;78.77
12789;BME280;6458;42.710;23.192;2023-11-21T09:41:13;93482.34;;;9.95;83.64
12789;BME280;6458;42.710;23.192;2023-11-21T09:43:44;93468.03;;;9.88;85.41
12789;BME280;6458;42.710;23.192;2023-11-21T09:46:13;93458.53;;;9.71;84.73
12789;BME280;6458;42.710;23.192;2023-11-21T09:48:47;93460.00;;;10.10;84.09
12789;BME280;6458;42.710;23.192;2023-11-21T09:51:19;93464.94;;;10.32;81.07
12789;BME280;6458;42.710;23.192;2023-11-21T09:53:50;93457.56;;;10.07;82.63
12789;BME280;6458;42.710;23.192;2023-11-21T09:56:19;93455.41;;;10.15;81.05
12789;BME280;6458;42.710;23.192;2023-11-21T09:58:51;93452.09;;;10.62;76.84
12789;BME280;6458;42.710;23.192;2023-11-21T10:01:19;93456.56;;;10.60;75.95
12789;BME280;6458;42.710;23.192;2023-11-21T10:03:47;93451.56;;;10.73;75.43
12789;BME280;6458;42.710;23.192;2023-11-21T10:06:15;93446.59;;;10.84;74.57
12789;BME280;6458;42.710;23.192;2023-11-21T10:08:43;93443.75;;;10.57;76.50
12789;BME280;6458;42.710;23.192;2023-11-21T10:11:13;93439.06;;;10.63;77.62
12789;BME280;6458;42.710;23.192;2023-11-21T10:13:41;93426.78;;;10.67;75.87
12789;BME280;6458;42.710;23.192;2023-11-21T10:16:14;93435.47;;;10.50;76.83
12789;BME280;6458;42.710;23.192;2023-11-21T10:18:42;93417.00;;;10.72;76.93
12789;BME280;6458;42.710;23.192;2023-11-21T10:21:11;93403.25;;;11.02;75.81
12789;BME280;6458;42.710;23.192;2023-11-21T10:23:39;93415.13;;;11.06;75.54
12789;BME280;6458;42.710;23.192;2023-11-21T10:26:06;93416.72;;;10.93;75.15
12789;BME280;6458;42.710;23.192;2023-11-21T10:28:55;93411.25;;;11.29;74.60
12789;BME280;6458;42.710;23.192;2023-11-21T10:31:22;93408.06;;;11.24;72.25
12789;BME280;6458;42.710;23.192;2023-11-21T10:33:49;93403.94;;;11.35;71.36
12789;BME280;6458;42.710;23.192;2023-11-21T10:36:25;93403.38;;;11.30;72.15
12789;BME280;6458;42.710;23.192;2023-11-21T10:38:52;93400.03;;;11.58;71.72
12789;BME280;6458;42.710;23.192;2023-11-21T10:41:20;93399.03;;;11.75;71.00
12789;BME280;6458;42.710;23.192;2023-11-21T10:43:48;93400.31;;;11.54;70.21
12789;BME280;6458;42.710;23.192;2023-11-21T10:46:15;93394.72;;;11.60;70.97
12789;BME280;6458;42.710;23.192;2023-11-21T10:48:42;93397.06;;;11.65;71.15
12789;BME280;6458;42.710;23.192;2023-11-21T10:51:09;93390.13;;;11.35;71.31
12789;BME280;6458;42.710;23.192;2023-11-21T10:53:39;93391.75;;;11.52;71.55
12789;BME280;6458;42.710;23.192;2023-11-21T10:56:08;93395.47;;;11.48;70.86
12789;BME280;6458;42.710;23.192;2023-11-21T10:58:43;93383.19;;;11.35;72.02
12789;BME280;6458;42.710;23.192;2023-11-21T11:01:11;93378.47;;;11.42;72.49
12789;BME280;6458;42.710;23.192;2023-11-21T11:03:39;93373.88;;;11.31;72.57
12789;BME280;6458;42.710;23.192;2023-11-21T11:06:08;93369.78;;;11.27;72.67
12789;BME280;6458;42.710;23.192;2023-11-21T11:08:37;93369.81;;;11.11;72.84
12789;BME280;6458;42.710;23.192;2023-11-21T11:11:04;93360.03;;;11.17;74.16
12789;BME280;6458;42.710;23.192;2023-11-21T11:13:32;93354.97;;;11.29;73.26
12789;BME280;6458;42.710;23.192;2023-11-21T11:16:00;93352.56;;;11.41;72.60
12789;BME280;6458;42.710;23.192;2023-11-21T11:18:30;93353.81;;;11.49;71.06
12789;BME280;6458;42.710;23.192;2023-11-21T11:21:05;93349.84;;;11.58;70.17
12789;BME280;6458;42.710;23.192;2023-11-21T11:23:46;93353.72;;;11.51;68.44
12789;BME280;6458;42.710;23.192;2023-11-21T11:26:26;93338.91;;;11.67;68.88
12789;BME280;6458;42.710;23.192;2023-11-21T11:29:16;93325.50;;;11.89;68.33
12789;BME280;6458;42.710;23.192;2023-11-21T11:31:55;93330.19;;;11.82;67.27
12789;BME280;6458;42.710;23.192;2023-11-21T11:34:33;93342.44;;;11.80;69.07
12789;BME280;6458;42.710;23.192;2023-11-21T11:37:04;93345.47;;;11.58;71.29
12789;BME280;6458;42.710;23.192;2023-11-21T11:39:36;93354.44;;;11.39;74.20
12789;BME280;6458;42.710;23.192;2023-11-21T11:42:12;93358.41;;;11.44;78.76
12789;BME280;6458;42.710;23.192;2023-11-21T11:44:50;93368.94;;;11.27;81.85
12789;BME280;6458;42.710;23.192;2023-11-21T11:47:21;93360.44;;;11.09;79.23
12789;BME280;6458;42.710;23.192;2023-11-21T11:49:59;93355.75;;;10.54;79.49
12789;BME280;6458;42.710;23.192;2023-11-21T11:52:36;93358.50;;;10.51;86.94
12789;BME280;6458;42.710;23.192;2023-11-21T11:55:06;93351.22;;;10.41;90.90
12789;BME280;6458;42.710;23.192;2023-11-21T11:57:35;93353.22;;;10.36;97.55
12789;BME280;6458;42.710;23.192;2023-11-21T12:00:14;93357.50;;;10.37;100.00
12789;BME280;6458;42.710;23.192;2023-11-21T12:02:47;93348.44;;;10.29;100.00
12789;BME280;6458;42.710;23.192;2023-11-21T12:05:17;93347.16;;;10.20;100.00
12789;BME280;6458;42.710;23.192;2023-11-21T12:07:46;93351.72;;;10.15;100.00
12789;BME280;6458;42.710;23.192;2023-11-21T12:10:17;93337.69;;;10.03;100.00
12789;BME280;6458;42.710;23.192;2023-11-21T12:12:48;93350.06;;;9.47;100.00
12789;BME280;6458;42.710;23.192;2023-11-21T12:15:16;93342.16;;;9.16;100.00
12789;BME280;6458;42.710;23.192;2023-11-21T12:17:45;93339.78;;;8.76;100.00
12789;BME280;6458;42.710;23.192;2023-11-21T12:20:13;93346.31;;;8.47;100.00
12789;BME280;6458;42.710;23.192;2023-11-21T12:22:46;93331.91;;;8.23;100.00
12789;BME280;6458;42.710;23.192;2023-11-21T12:25:17;93327.22;;;8.12;100.00
12789;BME280;6458;42.710;23.192;2023-11-21T12:27:46;93337.00;;;8.24;100.00
12789;BME280;6458;42.710;23.192;2023-11-21T12:30:15;93338.97;;;8.38;100.00
12789;BME280;6458;42.710;23.192;2023-11-21T12:32:43;93336.25;;;8.41;100.00
12789;BME280;6458;42.710;23.192;2023-11-21T12:35:12;93314.53;;;8.45;100.00
12789;BME280;6458;42.710;23.192;2023-11-21T12:37:40;93335.00;;;8.50;100.00
12789;BME280;6458;42.710;23.192;2023-11-21T12:40:11;93330.69;;;8.68;100.00
12789;BME280;6458;42.710;23.192;2023-11-21T12:42:42;93322.84;;;8.69;100.00
12789;BME280;6458;42.710;23.192;2023-11-21T12:45:19;93320.38;;;8.68;100.00
12789;BME280;6458;42.710;23.192;2023-11-21T12:47:48;93315.34;;;8.65;100.00
12789;BME280;6458;42.710;23.192;2023-11-21T12:50:18;93316.53;;;8.57;100.00
12789;BME280;6458;42.710;23.192;2023-11-21T12:52:49;93310.84;;;8.68;100.00
12789;BME280;6458;42.710;23.192;2023-11-21T12:55:21;93310.75;;;8.70;100.00
12789;BME280;6458;42.710;23.192;2023-11-21T12:57:49;93300.59;;;8.48;100.00
12789;BME280;6458;42.710;23.192;2023-11-21T13:00:18;93295.25;;;8.52;100.00
12789;BME280;6458;42.710;23.192;2023-11-21T13:02:55;93313.19;;;8.73;100.00
12789;BME280;6458;42.710;23.192;2023-11-21T13:05:27;93299.38;;;8.91;100.00
12789;BME280;6458;42.710;23.192;2023-11-21T13:07:55;93298.69;;;8.88;100.00
12789;BME280;6458;42.710;23.192;2023-11-21T13:10:26;93305.22;;;8.95;100.00
12789;BME280;6458;42.710;23.192;2023-11-21T13:12:56;93294.19;;;8.91;100.00